Terminal Aerodrome Forecast
Issued by NWS

Home | Current Version | Previous Version | Text Only | Print | Product List | Glossary Off
Versions: 1 2 3 4 5 6 7 8 9 10 11 12 13 14 15 16 17 18 19 20 21 22 23 24 25 26 27 28 29 30

162
FTUS43 KICT 261611 AAC
TAFHUT
TAF AMD
KHUT 261611Z 2616/2712 VRB03KT 5SM BR OVC006
      TEMPO 2616/2618 3SM BR OVC003
     FM261800 11012KT P6SM SCT030 BKN150
     FM262100 10014KT P6SM VCTS BKN050CB
     FM270000 06015G22KT P6SM VCTS SCT015 BKN030CB
     FM270600 02015G22KT P6SM VCSH SCT009 BKN015=

USA.gov is the U.S. government's official web portal to all federal, state and local government web resources and services.